Time;durP1;ratioP1;P1;durP2;ratioP2;P2;SDS_P1;SDS_P2;PMS_P1;PMS_P2;Temp;Humidity;BMP_temperature;BMP_pressure;BME280_temperature;BME280_humidity;BME280_pressure;Samples;Min_cycle;Max_cycle;Signal;HPM_P1;HPM_P2
2022/08/28 00:00:25;;;;;;;9.80;5.90;;;17.30;99.90;;;;;;5051258;28;20680;-85
2022/08/28 00:02:52;;;;;;;13.17;6.83;;;17.40;99.90;;;;;;5051093;28;21235;-86
2022/08/28 00:05:20;;;;;;;7.20;5.60;;;17.40;99.90;;;;;;5051354;28;20672;-86
2022/08/28 00:07:47;;;;;;;9.83;7.03;;;17.50;99.90;;;;;;5051245;28;20680;-86
2022/08/28 00:10:18;;;;;;;7.53;6.73;;;17.50;99.90;;;;;;5051358;28;20615;-86
2022/08/28 00:12:46;;;;;;;9.97;6.73;;;17.50;99.90;;;;;;5051665;28;20619;-85
2022/08/28 00:15:15;;;;;;;10.93;7.70;;;17.50;99.90;;;;;;5051137;28;20638;-86
2022/08/28 00:17:42;;;;;;;9.97;6.90;;;17.50;99.90;;;;;;5049622;28;20654;-86
2022/08/28 00:20:11;;;;;;;8.90;5.93;;;17.50;99.90;;;;;;5051375;28;20655;-86
2022/08/28 00:22:39;;;;;;;10.77;6.70;;;17.60;99.90;;;;;;5050931;28;20726;-86
2022/08/28 00:25:07;;;;;;;6.87;5.80;;;17.60;99.90;;;;;;5051430;28;20614;-86
2022/08/28 00:27:53;;;;;;;9.33;6.73;;;17.60;99.90;;;;;;5049726;28;20623;-86
2022/08/28 00:30:22;;;;;;;7.40;6.30;;;17.60;99.90;;;;;;5042078;28;20649;-85
2022/08/28 00:32:50;;;;;;;8.13;6.30;;;17.60;99.90;;;;;;5051042;28;20711;-85
2022/08/28 00:35:18;;;;;;;7.83;5.63;;;17.60;99.90;;;;;;5050302;28;21262;-85
2022/08/28 00:37:45;;;;;;;7.23;5.83;;;17.60;99.90;;;;;;5049719;28;21195;-85
2022/08/28 00:40:14;;;;;;;10.80;7.40;;;17.60;99.90;;;;;;5050396;28;21176;-84
2022/08/28 00:42:43;;;;;;;7.23;5.60;;;16.90;99.90;;;;;;5049570;28;20657;-85
2022/08/28 00:45:11;;;;;;;8.23;6.57;;;17.60;99.90;;;;;;5050630;28;20682;-85
2022/08/28 00:47:38;;;;;;;6.63;5.93;;;17.70;99.90;;;;;;5050227;28;21021;-85
2022/08/28 00:50:09;;;;;;;8.47;6.50;;;17.70;99.90;;;;;;5050342;28;20661;-86
2022/08/28 00:52:35;;;;;;;8.87;6.47;;;17.70;99.90;;;;;;5050223;28;20649;-85
2022/08/28 00:55:07;;;;;;;9.23;6.40;;;17.70;99.90;;;;;;5048043;28;20668;-86
2022/08/28 00:57:37;;;;;;;10.37;6.17;;;17.70;99.90;;;;;;5049481;28;21032;-85
2022/08/28 01:00:08;;;;;;;6.33;5.63;;;17.70;99.90;;;;;;5050566;28;20614;-85
2022/08/28 01:02:35;;;;;;;8.40;6.07;;;17.70;99.90;;;;;;5049982;28;20620;-85
2022/08/28 01:05:02;;;;;;;8.87;5.93;;;17.70;99.90;;;;;;5048174;28;21007;-85
2022/08/28 01:07:29;;;;;;;9.40;5.33;;;17.70;99.90;;;;;;5048441;28;20665;-85
2022/08/28 01:09:57;;;;;;;10.30;6.47;;;17.70;99.90;;;;;;5050652;28;20751;-85
2022/08/28 01:12:28;;;;;;;10.63;5.80;;;17.80;99.90;;;;;;5054569;28;21215;-85
2022/08/28 01:15:00;;;;;;;8.40;6.53;;;17.80;99.90;;;;;;5050316;28;20784;-85
2022/08/28 01:17:32;;;;;;;8.47;6.90;;;17.80;99.90;;;;;;5049529;28;20670;-85
2022/08/28 01:20:05;;;;;;;7.30;6.43;;;17.80;99.90;;;;;;5049084;28;20618;-85
2022/08/28 01:22:37;;;;;;;7.50;5.50;;;17.80;99.90;;;;;;5050217;28;20626;-85
2022/08/28 01:25:09;;;;;;;11.50;7.00;;;17.90;99.90;;;;;;5049985;28;20680;-85
2022/08/28 01:27:37;;;;;;;7.50;6.17;;;17.70;99.90;;;;;;5049571;28;20617;-85
2022/08/28 01:30:06;;;;;;;7.70;5.83;;;17.80;99.90;;;;;;5050017;28;21255;-85
2022/08/28 01:32:38;;;;;;;8.70;6.33;;;17.70;99.90;;;;;;5048954;28;21215;-85
2022/08/28 01:35:07;;;;;;;9.13;7.50;;;17.70;99.90;;;;;;5049971;28;20713;-85
2022/08/28 01:37:34;;;;;;;8.17;6.03;;;17.70;99.90;;;;;;5049049;28;21013;-85
2022/08/28 01:40:01;;;;;;;7.33;5.63;;;17.70;99.90;;;;;;5050513;28;21222;-85
2022/08/28 01:42:29;;;;;;;9.20;5.80;;;17.70;99.90;;;;;;5049689;28;20714;-85
2022/08/28 01:44:57;;;;;;;6.27;5.40;;;17.70;99.90;;;;;;5049732;28;20649;-85
2022/08/28 01:47:24;;;;;;;7.83;6.10;;;17.70;99.90;;;;;;5048981;28;20646;-85
2022/08/28 01:49:51;;;;;;;8.40;5.37;;;17.70;99.90;;;;;;5049859;28;20622;-85
2022/08/28 01:52:20;;;;;;;8.93;6.10;;;17.70;99.90;;;;;;5050139;28;20634;-85
2022/08/28 01:54:46;;;;;;;6.50;5.73;;;17.60;99.90;;;;;;5051646;28;21276;-85
2022/08/28 01:57:13;;;;;;;6.90;5.97;;;17.60;99.90;;;;;;5052704;28;20736;-85
2022/08/28 01:59:42;;;;;;;6.93;5.80;;;17.60;99.90;;;;;;5052724;28;21180;-85
2022/08/28 02:02:09;;;;;;;8.57;6.27;;;17.60;99.90;;;;;;5053223;28;20639;-85
2022/08/28 02:04:37;;;;;;;8.80;6.37;;;17.40;99.90;;;;;;5052011;28;20614;-85
2022/08/28 02:07:04;;;;;;;6.80;5.70;;;17.50;99.90;;;;;;5052487;28;20630;-85
2022/08/28 02:09:30;;;;;;;6.63;5.10;;;17.60;99.90;;;;;;5053784;28;20633;-85
2022/08/28 02:11:59;;;;;;;7.87;6.77;;;17.60;99.90;;;;;;5054206;28;20633;-85
2022/08/28 02:14:27;;;;;;;6.87;5.73;;;17.60;99.90;;;;;;5053217;28;20614;-86
2022/08/28 02:16:56;;;;;;;7.53;6.83;;;17.50;99.90;;;;;;5052807;28;21143;-85
2022/08/28 02:19:23;;;;;;;7.97;5.60;;;17.60;99.90;;;;;;5052965;28;20649;-85
2022/08/28 02:21:50;;;;;;;9.40;6.33;;;17.60;99.90;;;;;;5053007;28;20970;-85
2022/08/28 02:24:18;;;;;;;6.90;5.67;;;17.60;99.90;;;;;;5053430;28;20737;-85
2022/08/28 02:26:45;;;;;;;12.20;7.37;;;17.60;99.90;;;;;;5040689;28;20630;-85
2022/08/28 02:29:12;;;;;;;7.43;6.30;;;17.60;99.90;;;;;;5046104;28;21277;-84
2022/08/28 02:31:39;;;;;;;8.33;5.10;;;;;;;;;;5052797;28;20676;-85
2022/08/28 02:34:10;;;;;;;7.27;5.30;;;17.60;99.90;;;;;;5052992;28;20680;-85
2022/08/28 02:36:41;;;;;;;8.40;6.10;;;17.60;99.90;;;;;;5051924;28;20658;-85
2022/08/28 02:39:08;;;;;;;8.40;6.67;;;17.50;99.90;;;;;;5040834;28;20614;-85
2022/08/28 02:41:35;;;;;;;11.20;6.53;;;17.60;99.90;;;;;;5052549;28;20963;-85
2022/08/28 02:44:02;;;;;;;9.23;6.40;;;17.50;99.90;;;;;;5052977;28;20618;-85
2022/08/28 02:46:29;;;;;;;7.23;5.90;;;17.60;99.90;;;;;;5052260;28;21026;-85
2022/08/28 02:48:56;;;;;;;8.87;6.47;;;17.60;99.90;;;;;;5052462;28;20661;-85
2022/08/28 02:51:24;;;;;;;7.30;5.87;;;17.70;99.90;;;;;;5051420;28;20633;-85
2022/08/28 02:53:53;;;;;;;8.40;6.23;;;17.70;99.90;;;;;;5050162;28;20639;-85
2022/08/28 02:56:20;;;;;;;6.47;5.37;;;17.70;99.90;;;;;;5048713;28;20664;-86
2022/08/28 02:58:47;;;;;;;8.27;6.33;;;17.80;99.90;;;;;;5050454;28;20631;-86
2022/08/28 03:01:14;;;;;;;11.33;7.07;;;17.80;99.90;;;;;;5050484;28;20614;-86
2022/08/28 03:03:43;;;;;;;9.80;6.63;;;17.80;99.90;;;;;;5050069;28;20650;-85
2022/08/28 03:06:11;;;;;;;7.20;4.80;;;17.80;99.90;;;;;;5048282;28;20610;-86
2022/08/28 03:08:40;;;;;;;8.60;5.93;;;17.80;99.90;;;;;;5050141;28;20610;-86
2022/08/28 03:11:07;;;;;;;5.80;5.00;;;17.90;99.90;;;;;;5050700;28;20614;-86
2022/08/28 03:13:34;;;;;;;11.07;5.70;;;17.90;99.90;;;;;;5050250;28;20613;-86
2022/08/28 03:16:03;;;;;;;9.73;6.10;;;17.90;99.90;;;;;;5050317;28;20646;-85
2022/08/28 03:18:31;;;;;;;10.03;6.60;;;18.00;99.90;;;;;;5048524;28;20637;-85
2022/08/28 03:20:58;;;;;;;11.20;7.20;;;18.00;99.90;;;;;;5049087;28;20626;-85
2022/08/28 03:23:25;;;;;;;10.23;6.20;;;17.90;99.90;;;;;;5050140;28;20626;-85
2022/08/28 03:25:54;;;;;;;9.77;6.67;;;18.00;99.90;;;;;;5045762;28;21223;-85
2022/08/28 03:28:21;;;;;;;8.50;6.13;;;18.00;99.90;;;;;;5048637;28;20627;-86
2022/08/28 03:30:49;;;;;;;8.80;5.27;;;18.00;99.90;;;;;;5050459;28;21037;-86
2022/08/28 03:33:16;;;;;;;5.00;4.50;;;17.80;99.90;;;;;;5049209;28;20625;-85
2022/08/28 03:35:43;;;;;;;7.53;6.10;;;17.80;99.90;;;;;;5050154;28;20626;-85
2022/08/28 03:38:11;;;;;;;11.47;6.43;;;17.80;99.90;;;;;;5049251;28;20654;-85
2022/08/28 03:40:41;;;;;;;11.97;6.10;;;18.10;99.90;;;;;;5050332;28;20621;-85
2022/08/28 03:43:11;;;;;;;8.57;7.30;;;18.00;99.90;;;;;;5049786;28;21014;-85
2022/08/28 03:45:39;;;;;;;8.00;6.07;;;17.90;99.90;;;;;;5050333;28;20684;-86
2022/08/28 03:48:06;;;;;;;15.27;7.80;;;17.80;99.90;;;;;;5049005;28;20633;-85
2022/08/28 03:50:33;;;;;;;7.80;6.20;;;17.90;99.90;;;;;;5049835;28;20623;-85
2022/08/28 03:53:00;;;;;;;9.27;6.37;;;18.00;99.90;;;;;;5049927;28;20618;-86
2022/08/28 03:55:27;;;;;;;9.73;7.00;;;18.00;99.90;;;;;;5048793;28;21309;-85
2022/08/28 03:57:55;;;;;;;9.23;6.27;;;18.00;99.90;;;;;;5049325;28;20658;-85
2022/08/28 04:00:23;;;;;;;9.13;6.53;;;18.10;99.90;;;;;;5049195;28;20622;-85
2022/08/28 04:02:50;;;;;;;8.37;5.70;;;17.90;99.90;;;;;;5048450;28;20627;-85
2022/08/28 04:05:18;;;;;;;7.60;5.90;;;18.00;99.90;;;;;;5047998;28;20631;-85
2022/08/28 04:07:45;;;;;;;8.83;6.27;;;18.00;99.90;;;;;;5047476;28;21172;-85
2022/08/28 04:10:12;;;;;;;10.27;7.20;;;18.00;99.90;;;;;;5049233;28;20661;-85
2022/08/28 04:12:39;;;;;;;9.87;7.40;;;18.00;99.90;;;;;;5049460;28;21178;-85
2022/08/28 04:15:07;;;;;;;9.43;7.33;;;18.00;99.90;;;;;;5048221;28;20668;-86
2022/08/28 04:17:38;;;;;;;11.07;6.10;;;18.00;99.90;;;;;;5047806;28;20739;-86
2022/08/28 04:20:07;;;;;;;8.50;6.40;;;18.00;99.90;;;;;;5049759;28;20611;-85
2022/08/28 04:22:34;;;;;;;6.73;5.40;;;18.00;99.90;;;;;;5048728;28;20650;-85
2022/08/28 04:25:01;;;;;;;10.37;6.73;;;18.10;99.90;;;;;;5048624;28;20647;-85
2022/08/28 04:27:28;;;;;;;9.20;6.70;;;18.10;99.90;;;;;;5038739;28;21022;-85
2022/08/28 04:29:55;;;;;;;8.47;5.57;;;18.10;99.90;;;;;;5048586;28;20625;-86
2022/08/28 04:32:22;;;;;;;9.33;6.23;;;18.10;99.90;;;;;;5049066;28;20668;-85
2022/08/28 04:34:51;;;;;;;7.40;5.67;;;18.20;99.90;;;;;;5048724;28;20637;-86
2022/08/28 04:37:18;;;;;;;6.07;5.10;;;18.20;99.90;;;;;;5047674;28;20693;-85
2022/08/28 04:39:44;;;;;;;10.93;6.30;;;18.20;99.90;;;;;;5048915;28;20618;-85
2022/08/28 04:42:11;;;;;;;9.10;6.80;;;18.20;99.90;;;;;;5047768;28;20680;-86
2022/08/28 04:44:38;;;;;;;9.40;6.90;;;18.20;99.90;;;;;;5049090;28;20772;-85
2022/08/28 04:47:05;;;;;;;8.23;5.87;;;18.10;99.90;;;;;;5048014;28;20615;-86
2022/08/28 04:49:32;;;;;;;8.63;6.33;;;18.10;99.90;;;;;;5048780;28;21245;-85
2022/08/28 04:52:00;;;;;;;13.03;7.07;;;18.00;99.90;;;;;;5048051;28;20652;-85
2022/08/28 04:54:27;;;;;;;7.10;6.20;;;17.90;99.90;;;;;;5048311;28;20631;-85
2022/08/28 04:56:54;;;;;;;11.27;6.53;;;18.10;99.90;;;;;;5046469;28;20693;-85
2022/08/28 04:59:22;;;;;;;7.57;6.83;;;18.10;99.90;;;;;;5048367;28;20622;-86
2022/08/28 05:01:49;;;;;;;14.37;5.77;;;18.10;99.90;;;;;;5048217;28;21076;-85
2022/08/28 05:04:17;;;;;;;6.73;5.53;;;18.00;99.90;;;;;;5047416;28;20622;-85
2022/08/28 05:06:45;;;;;;;7.27;5.80;;;18.00;99.90;;;;;;5046357;28;20708;-85
2022/08/28 05:09:14;;;;;;;7.63;5.50;;;18.10;99.90;;;;;;5047517;28;20619;-85
2022/08/28 05:11:42;;;;;;;5.77;5.17;;;18.10;99.90;;;;;;5048862;28;20718;-85
2022/08/28 05:14:09;;;;;;;7.40;5.70;;;18.20;99.90;;;;;;5048667;28;20618;-85
2022/08/28 05:16:42;;;;;;;9.13;6.70;;;18.20;99.90;;;;;;5047572;28;20970;-85
2022/08/28 05:19:09;;;;;;;8.63;5.90;;;18.20;99.90;;;;;;5047846;28;20650;-85
2022/08/28 05:21:36;;;;;;;9.53;6.10;;;18.20;99.90;;;;;;5048524;28;20656;-85
2022/08/28 05:24:03;;;;;;;8.67;6.20;;;18.20;99.90;;;;;;5047833;28;20626;-84
2022/08/28 05:26:33;;;;;;;7.70;6.00;;;18.20;99.90;;;;;;5048213;28;20625;-85
2022/08/28 05:29:00;;;;;;;8.17;6.23;;;18.20;99.90;;;;;;5057438;28;21247;-85
2022/08/28 05:31:29;;;;;;;7.37;5.47;;;18.20;99.90;;;;;;5052267;28;20614;-85
2022/08/28 05:33:57;;;;;;;7.57;6.27;;;18.20;99.90;;;;;;5051942;28;20626;-85
2022/08/28 05:36:25;;;;;;;6.20;5.60;;;18.20;99.90;;;;;;5051240;28;20619;-85
2022/08/28 05:38:54;;;;;;;10.10;6.50;;;18.20;99.90;;;;;;5052346;28;21020;-86
2022/08/28 05:41:24;;;;;;;8.27;5.80;;;18.20;99.90;;;;;;5052472;28;20630;-85
2022/08/28 05:43:52;;;;;;;8.40;5.80;;;18.20;99.90;;;;;;5052478;28;20678;-85
2022/08/28 05:46:21;;;;;;;8.70;6.80;;;18.10;99.90;;;;;;5052120;28;20633;-86
2022/08/28 05:48:48;;;;;;;6.90;6.20;;;18.20;99.90;;;;;;5051346;28;20635;-85
2022/08/28 05:51:18;;;;;;;8.37;6.27;;;18.30;99.90;;;;;;5051845;28;20993;-85
2022/08/28 05:53:48;;;;;;;7.23;6.20;;;18.20;99.90;;;;;;5051755;28;20630;-85
2022/08/28 05:56:17;;;;;;;10.07;5.90;;;18.20;99.90;;;;;;5050222;28;20661;-85
2022/08/28 05:58:44;;;;;;;9.10;6.50;;;18.30;99.90;;;;;;5051048;28;20761;-86
2022/08/28 06:01:15;;;;;;;8.77;7.20;;;18.30;99.90;;;;;;5051694;28;20618;-86
2022/08/28 06:03:44;;;;;;;9.97;6.37;;;18.30;99.90;;;;;;5051172;28;20821;-86
2022/08/28 06:06:12;;;;;;;7.27;5.87;;;18.30;99.90;;;;;;5049972;28;20989;-85
2022/08/28 06:08:40;;;;;;;5.03;4.53;;;18.30;99.90;;;;;;5048834;28;20662;-86
2022/08/28 06:11:08;;;;;;;10.60;6.60;;;18.30;99.90;;;;;;5051229;28;20675;-85
2022/08/28 06:13:36;;;;;;;7.10;5.73;;;18.40;99.90;;;;;;5051695;28;20611;-85
2022/08/28 06:16:04;;;;;;;7.87;6.50;;;18.40;99.90;;;;;;5050726;28;20648;-85
2022/08/28 06:18:32;;;;;;;11.20;6.03;;;18.40;99.90;;;;;;5050818;28;20688;-86
2022/08/28 06:21:02;;;;;;;7.30;5.47;;;18.40;99.90;;;;;;5051836;28;21017;-86
2022/08/28 06:23:29;;;;;;;11.17;6.77;;;18.40;99.90;;;;;;5050929;28;20624;-85
2022/08/28 06:25:57;;;;;;;8.33;5.87;;;18.40;99.90;;;;;;5051607;28;20664;-86
2022/08/28 06:28:26;;;;;;;9.60;6.27;;;18.40;99.90;;;;;;5050001;28;20622;-85
2022/08/28 06:30:55;;;;;;;8.07;6.03;;;18.50;99.90;;;;;;5050485;28;20966;-86
2022/08/28 06:33:23;;;;;;;7.23;5.87;;;18.50;99.90;;;;;;5049908;28;20696;-85
2022/08/28 06:35:53;;;;;;;7.80;5.30;;;18.40;99.90;;;;;;5050500;28;20627;-85
2022/08/28 06:38:22;;;;;;;8.97;6.00;;;18.40;99.90;;;;;;5048830;28;20701;-85
2022/08/28 06:40:52;;;;;;;9.87;7.00;;;18.40;99.90;;;;;;5046745;28;20622;-85
2022/08/28 06:43:22;;;;;;;6.27;5.67;;;18.40;99.90;;;;;;5047741;28;20625;-85
2022/08/28 06:45:53;;;;;;;8.30;5.77;;;18.50;99.90;;;;;;5048716;28;20662;-87
2022/08/28 06:48:22;;;;;;;8.90;5.77;;;18.50;99.90;;;;;;5048573;28;20622;-86
2022/08/28 06:50:52;;;;;;;6.40;4.77;;;18.50;99.90;;;;;;5049936;28;20630;-86
2022/08/28 06:53:21;;;;;;;6.13;4.70;;;18.50;99.90;;;;;;5048871;28;21311;-87
2022/08/28 06:55:57;;;;;;;8.90;5.87;;;18.50;99.90;;;;;;5049910;28;20634;-86
2022/08/28 06:58:23;;;;;;;10.10;5.90;;;18.50;99.90;;;;;;5049003;28;20669;-85
2022/08/28 07:00:51;;;;;;;11.73;6.43;;;18.50;99.90;;;;;;5049874;28;20622;-85
2022/08/28 07:03:18;;;;;;;7.13;5.10;;;18.50;99.90;;;;;;5045961;28;20641;-87
2022/08/28 07:05:45;;;;;;;8.37;7.57;;;18.60;99.90;;;;;;5048188;28;20619;-86
2022/08/28 07:08:13;;;;;;;7.20;5.33;;;18.60;99.90;;;;;;5046196;28;20627;-86
2022/08/28 07:10:40;;;;;;;10.37;6.60;;;18.70;99.90;;;;;;5049410;28;20658;-85
2022/08/28 07:13:07;;;;;;;6.00;4.97;;;18.70;99.90;;;;;;5049701;28;20662;-86
2022/08/28 07:15:34;;;;;;;7.10;4.40;;;18.70;99.90;;;;;;5049238;28;20626;-86
2022/08/28 07:18:00;;;;;;;5.30;4.80;;;18.70;99.90;;;;;;5049201;28;21197;-86
2022/08/28 07:20:27;;;;;;;10.03;6.07;;;18.80;99.90;;;;;;5049094;28;20867;-86
2022/08/28 07:22:54;;;;;;;7.40;6.37;;;18.90;99.90;;;;;;5048800;28;20658;-86
2022/08/28 07:25:22;;;;;;;7.47;5.40;;;18.80;99.90;;;;;;5049625;28;20622;-86
2022/08/28 07:27:49;;;;;;;6.53;5.00;;;18.90;99.90;;;;;;5048827;28;20618;-86
2022/08/28 07:30:16;;;;;;;8.17;5.70;;;18.90;99.90;;;;;;5048901;28;20634;-86
2022/08/28 07:32:47;;;;;;;10.43;7.23;;;18.90;99.90;;;;;;5049391;28;20630;-86
2022/08/28 07:35:15;;;;;;;10.90;4.73;;;18.90;99.90;;;;;;5048233;28;20637;-86
2022/08/28 07:37:42;;;;;;;6.17;4.80;;;18.90;99.90;;;;;;5048190;28;20920;-86
2022/08/28 07:40:10;;;;;;;6.77;5.60;;;18.90;99.90;;;;;;5048931;28;20676;-85
2022/08/28 07:45:23;;;;;;;7.40;5.50;;;19.20;99.90;;;;;;5048300;28;21210;-86
2022/08/28 07:47:50;;;;;;;7.60;5.90;;;19.30;99.90;;;;;;5046918;28;20710;-87
2022/08/28 07:50:17;;;;;;;6.97;5.53;;;19.20;99.90;;;;;;5048786;28;20654;-86
2022/08/28 07:52:44;;;;;;;6.00;4.97;;;19.20;99.90;;;;;;5048022;28;20630;-86
2022/08/28 07:55:11;;;;;;;10.50;5.93;;;19.30;99.90;;;;;;5048827;28;20759;-86
2022/08/28 07:57:39;;;;;;;7.27;5.53;;;19.30;99.90;;;;;;5047771;28;20658;-86
2022/08/28 08:00:07;;;;;;;8.70;5.40;;;19.30;99.90;;;;;;5048139;28;20611;-87
2022/08/28 08:02:34;;;;;;;7.80;5.67;;;19.40;99.90;;;;;;5046164;28;21030;-86
2022/08/28 08:05:01;;;;;;;6.50;4.77;;;19.50;99.90;;;;;;5047594;28;21250;-87
2022/08/28 08:07:27;;;;;;;7.23;5.70;;;19.40;99.90;;;;;;5045524;28;20618;-86
2022/08/28 08:09:54;;;;;;;5.23;4.73;;;19.50;99.90;;;;;;5047228;28;20729;-87
2022/08/28 08:12:21;;;;;;;7.60;5.77;;;19.50;99.90;;;;;;5047791;28;20619;-86
2022/08/28 08:14:50;;;;;;;6.93;4.93;;;19.60;99.90;;;;;;5042590;28;20764;-87
2022/08/28 08:17:16;;;;;;;6.60;5.90;;;19.60;99.90;;;;;;5047352;28;20709;-86
2022/08/28 08:19:43;;;;;;;8.87;5.53;;;19.60;99.90;;;;;;5048362;28;20654;-86
2022/08/28 08:22:10;;;;;;;6.20;5.30;;;19.60;99.90;;;;;;5047706;28;20708;-86
2022/08/28 08:24:37;;;;;;;6.20;5.60;;;19.50;99.90;;;;;;5048531;28;20715;-86
2022/08/28 08:27:05;;;;;;;6.50;5.83;;;19.50;99.90;;;;;;5049030;28;21029;-87
2022/08/28 08:29:35;;;;;;;6.57;4.87;;;19.50;99.90;;;;;;5049827;28;20621;-86
2022/08/28 08:32:06;;;;;;;6.00;5.10;;;19.70;99.90;;;;;;5047835;28;20653;-86
2022/08/28 08:34:35;;;;;;;5.67;5.17;;;19.70;99.90;;;;;;5048304;28;20657;-87
2022/08/28 08:37:02;;;;;;;8.00;6.37;;;19.90;99.90;;;;;;5047343;28;20653;-87
2022/08/28 08:39:29;;;;;;;7.67;4.70;;;20.00;99.90;;;;;;5046779;28;20697;-86
2022/08/28 08:41:59;;;;;;;5.97;5.37;;;19.90;99.90;;;;;;5047138;28;21270;-87
2022/08/28 08:44:29;;;;;;;6.83;4.73;;;19.90;99.90;;;;;;5047259;28;21240;-87
2022/08/28 08:47:06;;;;;;;7.40;5.40;;;20.10;99.90;;;;;;5046440;28;20626;-88
2022/08/28 08:49:35;;;;;;;7.20;5.40;;;20.00;99.90;;;;;;5046867;28;20721;-86
2022/08/28 08:52:19;;;;;;;5.27;4.73;;;19.90;99.90;;;;;;5044058;28;20626;-87
2022/08/28 08:55:00;;;;;;;9.73;5.67;;;20.10;99.90;;;;;;5042515;28;20684;-88
2022/08/28 08:57:27;;;;;;;7.37;5.77;;;20.20;99.90;;;;;;5066702;28;21191;-87
2022/08/28 08:59:54;;;;;;;6.47;5.00;;;20.30;99.90;;;;;;5049047;28;20665;-87
2022/08/28 09:02:28;;;;;;;6.80;4.87;;;20.40;99.90;;;;;;5047292;28;20626;-86
2022/08/28 09:05:01;;;;;;;5.33;4.80;;;20.20;99.90;;;;;;5037820;28;20725;-87
2022/08/28 09:07:41;;;;;;;8.03;6.03;;;20.20;99.90;;;;;;5029105;28;22321;-87
2022/08/28 09:10:11;;;;;;;5.60;4.57;;;20.30;99.90;;;;;;5043998;28;20717;-87
2022/08/28 09:12:50;;;;;;;6.53;4.27;;;20.20;99.90;;;;;;5046238;28;20646;-88
2022/08/28 09:15:25;;;;;;;8.73;6.10;;;20.40;99.90;;;;;;5046039;28;20630;-86
2022/08/28 09:17:57;;;;;;;6.20;4.70;;;20.30;99.90;;;;;;5047321;28;20999;-86
2022/08/28 09:20:27;;;;;;;8.80;4.60;;;20.50;99.90;;;;;;5046043;28;21083;-87
2022/08/28 09:22:55;;;;;;;6.17;5.07;;;20.50;99.90;;;;;;5045812;28;20730;-86
2022/08/28 09:25:49;;;;;;;5.80;4.40;;;20.60;99.90;;;;;;5048556;28;20630;-86
2022/08/28 09:28:20;;;;;;;5.70;4.70;;;20.80;99.90;;;;;;5041366;28;20638;-87
2022/08/28 09:31:03;;;;;;;6.50;4.40;;;20.80;99.90;;;;;;5044803;28;21168;-86
2022/08/28 09:33:39;;;;;;;5.40;4.70;;;20.90;99.90;;;;;;5044564;28;20676;-88
2022/08/28 09:36:30;;;;;;;6.23;5.10;;;20.90;99.90;;;;;;5045928;28;21235;-86
2022/08/28 09:39:17;;;;;;;7.70;5.00;;;20.80;99.90;;;;;;5038735;28;20674;-87
2022/08/28 09:44:33;;;;;;;9.77;5.07;;;20.70;99.90;;;;;;5004214;28;20641;-86
2022/08/28 09:47:00;;;;;;;6.43;4.27;;;20.60;99.90;;;;;;5042557;28;20618;-88
2022/08/28 09:49:30;;;;;;;5.40;4.57;;;20.70;99.90;;;;;;5047064;28;20635;-87
2022/08/28 09:52:00;;;;;;;6.20;5.50;;;20.70;99.90;;;;;;5046182;28;20775;-86
2022/08/28 09:54:32;;;;;;;6.90;5.43;;;20.70;99.90;;;;;;5046555;28;20745;-87
2022/08/28 09:57:00;;;;;;;6.70;4.90;;;20.70;99.90;;;;;;5045695;28;21180;-87
2022/08/28 09:59:29;;;;;;;5.20;3.83;;;20.70;99.90;;;;;;5046256;28;21231;-87
2022/08/28 10:02:12;;;;;;;5.27;4.10;;;20.60;99.90;;;;;;5046807;28;20672;-88
2022/08/28 10:04:59;;;;;;;6.70;4.70;;;20.80;99.90;;;;;;5046125;28;20623;-87
2022/08/28 10:07:37;;;;;;;5.20;4.40;;;21.10;99.90;;;;;;5025692;28;20639;-88
2022/08/28 10:10:17;;;;;;;5.90;4.97;;;21.10;99.90;;;;;;5045833;28;21195;-87
2022/08/28 10:12:54;;;;;;;5.63;4.43;;;21.10;99.90;;;;;;5046022;28;20696;-88
2022/08/28 10:15:28;;;;;;;5.10;4.60;;;21.00;99.90;;;;;;5047705;28;20638;-87
2022/08/28 10:18:12;;;;;;;5.17;4.60;;;21.00;99.90;;;;;;5050190;28;20645;-86
2022/08/28 10:20:52;;;;;;;6.10;5.00;;;21.00;99.90;;;;;;5050334;28;21279;-88
2022/08/28 10:23:30;;;;;;;5.47;4.87;;;21.30;99.90;;;;;;5049827;28;20614;-86
2022/08/28 10:26:07;;;;;;;5.80;5.00;;;21.40;99.90;;;;;;5050227;28;20660;-87
2022/08/28 10:28:45;;;;;;;6.23;5.30;;;21.50;99.90;;;;;;5049728;28;20680;-85
2022/08/28 10:31:20;;;;;;;6.00;5.40;;;21.60;99.90;;;;;;5049338;28;21223;-86
2022/08/28 10:34:09;;;;;;;4.20;3.80;;;21.70;99.90;;;;;;5050607;28;21146;-87
2022/08/28 10:36:38;;;;;;;5.37;4.20;;;22.00;99.90;;;;;;5037511;28;20618;-87
2022/08/28 10:39:18;;;;;;;4.93;4.50;;;22.60;99.90;;;;;;5050013;28;21252;-87
2022/08/28 10:41:47;;;;;;;5.77;5.10;;;22.50;99.90;;;;;;5049758;28;20721;-87
2022/08/28 10:44:21;;;;;;;9.10;5.40;;;22.80;99.90;;;;;;5049660;28;20630;-86
2022/08/28 10:46:52;;;;;;;6.27;4.73;;;22.80;99.90;;;;;;5049739;28;20653;-87
2022/08/28 10:49:25;;;;;;;4.27;3.80;;;22.80;99.90;;;;;;5050119;28;20618;-89
2022/08/28 10:51:56;;;;;;;5.30;4.40;;;23.00;99.90;;;;;;5050548;28;20622;-89
2022/08/28 10:54:29;;;;;;;4.23;3.83;;;23.20;99.90;;;;;;5049550;28;20645;-89
2022/08/28 10:57:02;;;;;;;6.30;4.17;;;23.40;99.40;;;;;;5049194;28;20637;-88
2022/08/28 10:59:32;;;;;;;4.53;4.07;;;23.40;98.30;;;;;;5048902;28;20669;-89
2022/08/28 11:02:00;;;;;;;4.57;4.10;;;23.40;98.70;;;;;;5047017;28;20642;-88
2022/08/28 11:04:28;;;;;;;5.77;4.97;;;23.40;99.60;;;;;;5049691;28;20629;-87
2022/08/28 11:07:02;;;;;;;5.67;5.17;;;23.60;98.10;;;;;;5041554;28;21071;-87
2022/08/28 11:09:32;;;;;;;6.03;5.00;;;23.70;98.10;;;;;;5047974;28;20623;-87
2022/08/28 11:12:01;;;;;;;5.10;4.53;;;23.80;97.80;;;;;;5048673;28;21397;-87
2022/08/28 11:14:32;;;;;;;7.03;4.17;;;23.90;97.90;;;;;;5049274;28;21154;-87
2022/08/28 11:17:02;;;;;;;3.80;3.50;;;23.90;96.80;;;;;;5048030;28;20618;-86
2022/08/28 11:20:02;;;;;;;4.80;4.07;;;23.70;97.20;;;;;;5048748;28;20662;-87
2022/08/28 11:22:37;;;;;;;8.73;5.97;;;23.40;98.10;;;;;;5041284;28;21188;-88
2022/08/28 11:25:13;;;;;;;4.30;3.90;;;23.70;98.70;;;;;;5035628;28;20626;-87
2022/08/28 11:28:00;;;;;;;4.90;4.13;;;23.50;97.00;;;;;;5048179;28;20661;-87
2022/08/28 11:30:32;;;;;;;5.00;4.50;;;23.50;96.40;;;;;;5047739;28;20669;-87
2022/08/28 11:33:01;;;;;;;4.93;4.53;;;23.40;96.30;;;;;;5039933;28;20626;-87
2022/08/28 11:35:48;;;;;;;5.40;4.80;;;23.50;96.70;;;;;;5048644;28;21254;-90
2022/08/28 11:38:54;;;;;;;4.63;4.20;;;23.30;96.60;;;;;;5048801;28;20684;-88
2022/08/28 11:41:26;;;;;;;4.50;4.10;;;23.20;96.70;;;;;;5028686;28;21188;-87
2022/08/28 11:44:41;;;;;;;5.10;4.60;;;23.30;97.10;;;;;;5045793;28;20626;-86
2022/08/28 11:47:55;;;;;;;4.30;3.90;;;23.50;97.40;;;;;;5046935;28;21106;-86
2022/08/28 11:50:26;;;;;;;5.00;4.10;;;24.10;96.10;;;;;;5029065;28;21072;-86
2022/08/28 11:53:23;;;;;;;5.87;5.27;;;24.60;96.00;;;;;;5036368;28;20622;-83
2022/08/28 11:56:06;;;;;;;4.90;4.30;;;24.60;94.80;;;;;;5043440;28;20739;-84
2022/08/28 11:58:41;;;;;;;6.10;4.10;;;24.00;95.50;;;;;;5041486;28;20662;-85
2022/08/28 12:01:12;;;;;;;3.87;3.50;;;24.00;95.60;;;;;;5045529;28;20626;-85
2022/08/28 12:03:43;;;;;;;5.60;5.10;;;23.40;95.10;;;;;;5047967;28;20803;-85
2022/08/28 12:06:12;;;;;;;4.63;4.07;;;24.20;95.80;;;;;;5042786;28;20685;-84
2022/08/28 12:09:09;;;;;;;5.87;4.00;;;23.40;95.00;;;;;;5039690;28;20627;-85
2022/08/28 12:11:57;;;;;;;4.63;4.17;;;24.20;93.40;;;;;;5047972;28;20633;-85
2022/08/28 12:15:01;;;;;;;4.27;3.87;;;24.80;93.30;;;;;;5047182;28;20614;-88
2022/08/28 12:17:47;;;;;;;4.00;3.60;;;25.70;92.90;;;;;;5038602;28;20622;-86
2022/08/28 12:20:28;;;;;;;3.83;3.50;;;25.60;90.60;;;;;;5048224;28;20664;-87
2022/08/28 12:22:58;;;;;;;4.00;3.00;;;24.80;91.00;;;;;;5047713;28;20699;-87
2022/08/28 12:25:30;;;;;;;4.03;3.73;;;24.60;93.10;;;;;;5048085;28;20986;-84
2022/08/28 12:27:59;;;;;;;3.40;3.10;;;24.40;92.50;;;;;;5047937;28;20725;-85
2022/08/28 12:30:33;;;;;;;3.80;3.47;;;24.50;92.90;;;;;;5048289;28;20603;-86
2022/08/28 12:33:11;;;;;;;4.53;3.40;;;24.20;92.70;;;;;;5047411;28;20619;-84
2022/08/28 12:35:38;;;;;;;4.43;3.57;;;24.20;92.70;;;;;;5047944;28;20645;-85
2022/08/28 12:38:08;;;;;;;5.50;4.20;;;23.70;92.30;;;;;;5046850;28;20741;-84
2022/08/28 12:40:49;;;;;;;4.43;4.07;;;23.70;93.60;;;;;;5046669;28;20780;-83
2022/08/28 12:43:29;;;;;;;3.90;3.50;;;23.40;93.20;;;;;;5047644;28;20721;-83
2022/08/28 12:45:59;;;;;;;3.30;3.00;;;23.30;93.40;;;;;;5047371;28;20961;-84
2022/08/28 12:48:30;;;;;;;4.43;3.60;;;23.30;93.70;;;;;;5047154;28;20685;-85
2022/08/28 12:51:00;;;;;;;5.23;3.77;;;23.40;94.50;;;;;;5048467;28;20730;-84
2022/08/28 12:53:27;;;;;;;5.43;3.40;;;24.70;92.40;;;;;;5048526;28;21328;-86
2022/08/28 12:55:54;;;;;;;3.47;3.17;;;26.30;92.00;;;;;;5047940;28;20630;-84
2022/08/28 12:58:31;;;;;;;4.37;3.97;;;27.20;90.20;;;;;;5046875;28;20635;-84
2022/08/28 13:01:01;;;;;;;4.37;3.67;;;27.20;89.00;;;;;;5047847;28;21139;-85
2022/08/28 13:03:31;;;;;;;4.37;3.70;;;27.40;85.30;;;;;;5049523;28;20676;-85
2022/08/28 13:06:03;;;;;;;3.87;3.23;;;28.30;82.20;;;;;;5044569;28;20628;-86
2022/08/28 13:08:30;;;;;;;4.93;3.53;;;29.20;81.60;;;;;;5037456;28;20636;-85